Time;durP1;ratioP1;P1;durP2;ratioP2;P2;SDS_P1;SDS_P2;PMS_P1;PMS_P2;Temp;Humidity;BMP_temperature;BMP_pressure;BME280_temperature;BME280_humidity;BME280_pressure;Samples;Min_cycle;Max_cycle;Signal;HPM_P1;HPM_P2
2022/04/10 00:01:22;;;;;;;3.20;2.17;;;;;;;1.26;84.24;96375.25;10432225;27;97741;-67
2022/04/10 00:06:25;;;;;;;5.10;1.83;;;;;;;1.19;84.11;96371.34;10435287;27;96985;-67
2022/04/10 00:11:29;;;;;;;3.17;1.65;;;;;;;0.94;84.41;96377.03;10429537;27;97149;-67
2022/04/10 00:16:33;;;;;;;6.13;3.58;;;;;;;0.70;84.89;96372.31;10424909;27;96889;-67
2022/04/10 00:21:36;;;;;;;3.22;2.33;;;;;;;0.63;84.93;96363.28;10439383;27;96709;-67
2022/04/10 00:26:39;;;;;;;4.10;2.85;;;;;;;0.63;85.44;96362.47;10419646;27;98887;-67
2022/04/10 00:31:43;;;;;;;3.55;1.98;;;;;;;0.48;85.67;96354.69;10436587;27;98235;-67
2022/04/10 00:36:46;;;;;;;2.28;1.42;;;;;;;0.31;85.50;96365.88;10433398;27;96922;-67
2022/04/10 00:41:49;;;;;;;2.15;1.50;;;;;;;0.28;85.77;96358.31;10447342;27;100846;-67
2022/04/10 00:46:54;;;;;;;2.08;1.40;;;;;;;0.25;85.57;96363.59;10430660;27;96912;-67
2022/04/10 00:51:57;;;;;;;2.75;1.42;;;;;;;0.27;85.30;96366.91;10422469;27;96955;-67
2022/04/10 00:57:01;;;;;;;2.63;1.30;;;;;;;0.26;85.32;96374.75;10433608;27;96682;-67
2022/04/10 01:02:06;;;;;;;2.17;1.52;;;;;;;0.20;85.16;96370.72;10432649;27;96885;-67
2022/04/10 01:07:16;;;;;;;1.77;1.23;;;;;;;0.03;85.38;96364.75;10419965;27;96815;-67
2022/04/10 01:12:19;;;;;;;2.80;1.58;;;;;;;-0.08;85.32;96367.03;10426711;27;99074;-67
2022/04/10 01:17:23;;;;;;;1.80;1.17;;;;;;;-0.04;84.56;96355.72;10433663;27;98923;-67
2022/04/10 01:22:33;;;;;;;4.53;2.15;;;;;;;-0.10;84.80;96363.72;10437151;27;100672;-67
2022/04/10 01:27:38;;;;;;;3.28;2.30;;;;;;;-0.21;84.16;96358.31;10424674;27;96685;-67
2022/04/10 01:32:41;;;;;;;3.13;2.15;;;;;;;-0.33;84.61;96363.16;10423683;27;96747;-68
2022/04/10 01:37:47;;;;;;;3.78;2.20;;;;;;;-0.44;84.79;96364.59;10429399;27;96750;-67
2022/04/10 01:42:50;;;;;;;7.70;4.80;;;;;;;-0.47;84.52;96365.59;10442724;27;97017;-67
2022/04/10 01:47:53;;;;;;;10.63;6.28;;;;;;;-0.47;84.75;96347.63;10439979;27;96903;-68
2022/04/10 01:52:57;;;;;;;4.88;3.67;;;;;;;-0.58;84.72;96349.91;10451646;27;96839;-67
2022/04/10 01:58:00;;;;;;;5.10;2.95;;;;;;;-0.66;84.37;96346.91;10423582;27;97834;-67
2022/04/10 02:03:03;;;;;;;4.95;2.75;;;;;;;-0.92;84.95;96343.88;10424109;27;96786;-67
2022/04/10 02:08:08;;;;;;;4.05;2.88;;;;;;;-1.06;85.42;96346.31;10453823;27;96861;-67
2022/04/10 02:13:11;;;;;;;2.20;1.80;;;;;;;-1.03;85.95;96346.13;10440706;27;96885;-68
2022/04/10 02:18:14;;;;;;;2.05;1.80;;;;;;;-1.04;85.29;96345.31;10429942;27;99025;-68
2022/04/10 02:23:19;;;;;;;2.47;1.70;;;;;;;-1.10;84.76;96348.16;10441972;27;98877;-69
2022/04/10 02:28:21;;;;;;;3.22;1.60;;;;;;;-1.17;85.18;96349.34;10431911;27;96778;-68
2022/04/10 02:33:24;;;;;;;2.42;1.67;;;;;;;-1.26;84.65;96340.38;10443870;27;100788;-68
2022/04/10 02:38:29;;;;;;;2.95;1.95;;;;;;;-1.27;85.04;96336.97;10448047;27;96975;-68
2022/04/10 02:43:31;;;;;;;1.93;1.57;;;;;;;-1.19;84.82;96320.41;10429451;27;97075;-68
2022/04/10 02:48:35;;;;;;;2.20;1.20;;;;;;;-1.31;85.04;96330.34;10436702;27;98858;-68
2022/04/10 02:53:39;;;;;;;2.97;1.42;;;;;;;-1.31;85.31;96326.94;10429854;27;97494;-68
2022/04/10 02:58:42;;;;;;;1.88;1.52;;;;;;;-1.23;85.39;96324.03;10428785;27;98248;-68
2022/04/10 03:03:44;;;;;;;1.42;1.13;;;;;;;-1.38;85.28;96321.28;10424974;27;97095;-68
2022/04/10 03:08:49;;;;;;;2.38;1.30;;;;;;;-1.54;85.04;96321.16;10436891;27;97537;-68
2022/04/10 03:13:52;;;;;;;2.22;1.58;;;;;;;-1.69;85.41;96312.47;10438089;27;97021;-68
2022/04/10 03:18:55;;;;;;;2.75;1.77;;;;;;;-1.81;85.47;96307.94;10433030;27;97404;-68
2022/04/10 03:23:59;;;;;;;4.10;2.08;;;;;;;-1.89;86.40;96304.88;10434685;27;96772;-68
2022/04/10 03:29:02;;;;;;;4.63;1.83;;;;;;;-1.88;86.31;96304.00;10450213;27;98683;-68
2022/04/10 03:34:04;;;;;;;5.60;3.17;;;;;;;-1.92;85.41;96305.84;10423118;27;100654;-68
2022/04/10 03:39:09;;;;;;;4.20;2.78;;;;;;;-1.95;85.24;96316.25;10422135;27;96843;-68
2022/04/10 03:44:11;;;;;;;2.17;1.63;;;;;;;-2.10;86.58;96316.94;10433015;27;100510;-68
2022/04/10 03:49:14;;;;;;;3.45;1.65;;;;;;;-2.21;87.33;96304.63;10436699;27;96776;-68
2022/04/10 03:54:18;;;;;;;4.18;1.50;;;;;;;-2.26;86.20;96316.78;10429021;27;98561;-68
2022/04/10 03:59:22;;;;;;;2.38;1.65;;;;;;;-2.25;86.52;96319.25;10438539;27;96699;-68
2022/04/10 04:04:25;;;;;;;1.83;1.58;;;;;;;-2.15;86.85;96321.41;10427926;27;99178;-68
2022/04/10 04:09:29;;;;;;;1.65;1.35;;;;;;;-2.12;86.50;96326.41;10420312;27;96845;-68
2022/04/10 04:14:32;;;;;;;2.58;1.63;;;;;;;-2.08;85.82;96327.91;10421575;27;96984;-68
2022/04/10 04:19:35;;;;;;;2.15;1.42;;;;;;;-2.06;85.48;96334.63;10416115;28;97079;-68
2022/04/10 04:24:39;;;;;;;2.53;1.80;;;;;;;-2.04;85.68;96339.69;10415961;28;96668;-68
2022/04/10 04:29:42;;;;;;;2.03;1.25;;;;;;;-2.12;85.91;96342.59;10420704;27;96844;-68
2022/04/10 04:34:45;;;;;;;1.85;1.40;;;;;;;-2.28;85.53;96355.22;10418664;27;96908;-68
2022/04/10 04:39:49;;;;;;;4.60;1.70;;;;;;;-2.33;87.20;96359.72;10438468;27;96906;-68
2022/04/10 04:44:52;;;;;;;1.90;1.20;;;;;;;-2.30;87.00;96356.19;10437713;27;97018;-68
2022/04/10 04:49:55;;;;;;;3.17;1.40;;;;;;;-2.36;87.07;96359.84;10422115;27;96783;-68
2022/04/10 04:55:00;;;;;;;1.38;1.20;;;;;;;-2.33;87.26;96364.84;10420262;27;96692;-68
2022/04/10 05:00:04;;;;;;;1.60;1.25;;;;;;;-2.20;86.93;96371.97;10418770;27;97053;-68
2022/04/10 05:05:08;;;;;;;2.35;1.35;;;;;;;-2.31;87.28;96377.56;10433603;27;100165;-68
2022/04/10 05:10:12;;;;;;;1.25;0.90;;;;;;;-2.33;86.16;96382.75;10427967;27;96929;-68
2022/04/10 05:15:15;;;;;;;2.97;1.65;;;;;;;-2.32;86.51;96388.69;10438829;27;99083;-68
2022/04/10 05:20:18;;;;;;;1.88;1.20;;;;;;;-2.34;88.01;96390.47;10420558;27;97097;-68
2022/04/10 05:25:22;;;;;;;1.85;1.05;;;;;;;-2.20;87.45;96402.69;10422274;27;96759;-68
2022/04/10 05:30:25;;;;;;;1.02;0.75;;;;;;;-2.09;87.37;96405.59;10448006;27;97240;-68
2022/04/10 05:35:28;;;;;;;3.40;1.05;;;;;;;-2.09;87.60;96411.56;10417314;27;96977;-68
2022/04/10 05:40:33;;;;;;;1.40;1.08;;;;;;;-2.04;86.50;96413.91;10418729;27;96859;-68
2022/04/10 05:45:35;;;;;;;2.05;1.20;;;;;;;-1.95;87.80;96421.22;10421265;27;96855;-68
2022/04/10 05:50:38;;;;;;;1.23;1.00;;;;;;;-1.80;87.91;96437.63;10418967;27;96688;-68
2022/04/10 05:55:43;;;;;;;2.17;0.95;;;;;;;-1.76;87.52;96443.44;10443480;27;97065;-68
2022/04/10 06:00:45;;;;;;;2.05;1.40;;;;;;;-1.69;88.06;96455.06;10427871;27;98731;-68
2022/04/10 06:05:48;;;;;;;3.47;1.85;;;;;;;-1.61;88.00;96454.75;10426763;27;96879;-68
2022/04/10 06:10:53;;;;;;;3.72;1.60;;;;;;;-1.42;87.84;96449.63;10430449;27;96926;-68
2022/04/10 06:15:56;;;;;;;3.30;2.50;;;;;;;-1.35;88.09;96459.53;10430163;27;99030;-68
2022/04/10 06:20:59;;;;;;;4.22;2.75;;;;;;;-1.24;88.38;96471.84;10431548;27;96697;-68
2022/04/10 06:26:03;;;;;;;5.03;2.90;;;;;;;-1.13;87.82;96473.94;10423288;27;96750;-68
2022/04/10 06:31:06;;;;;;;4.13;3.15;;;;;;;-0.95;88.02;96477.38;10427540;27;96896;-68
2022/04/10 06:36:10;;;;;;;4.53;2.50;;;;;;;-0.82;88.25;96478.47;10424241;27;97627;-69
2022/04/10 06:41:14;;;;;;;3.25;2.53;;;;;;;-0.56;88.33;96484.13;10441479;27;98684;-69
2022/04/10 06:46:17;;;;;;;2.88;2.40;;;;;;;-0.53;88.47;96483.94;10425220;27;96851;-68
2022/04/10 06:51:21;;;;;;;3.75;2.55;;;;;;;-0.44;88.54;96487.81;10417506;27;96807;-68
2022/04/10 06:56:26;;;;;;;3.40;2.63;;;;;;;-0.23;88.49;96485.91;10428149;27;97653;-68
2022/04/10 07:01:32;;;;;;;3.38;2.78;;;;;;;0.05;88.62;96493.94;10423934;27;97660;-68
2022/04/10 07:06:40;;;;;;;4.97;2.40;;;;;;;0.22;88.18;96492.25;10446587;27;98405;-69
2022/04/10 07:11:45;;;;;;;3.35;2.63;;;;;;;0.53;88.62;96478.66;10449081;27;97189;-68
2022/04/10 07:16:47;;;;;;;3.63;2.67;;;;;;;0.72;88.04;96480.25;10439660;27;97227;-68
2022/04/10 07:27:12;;;;;;;3.78;2.75;;;;;;;1.09;87.43;96488.56;10446222;27;96991;-68
2022/04/10 07:32:15;;;;;;;3.90;2.60;;;;;;;1.34;87.92;96482.91;10445945;27;97899;-68
2022/04/10 07:37:18;;;;;;;2.83;2.30;;;;;;;1.44;86.97;96478.91;10430368;27;96882;-69
2022/04/10 07:42:22;;;;;;;4.25;2.70;;;;;;;1.61;87.70;96479.69;10428887;27;96943;-69
2022/04/10 07:47:39;;;;;;;3.10;2.20;;;;;;;1.90;87.75;96475.44;10426645;27;96776;-69
2022/04/10 07:52:42;;;;;;;4.95;3.08;;;;;;;2.10;86.59;96482.03;10430071;27;96661;-69
2022/04/10 07:57:47;;;;;;;3.22;2.22;;;;;;;2.27;85.77;96491.34;10439155;27;96936;-69
2022/04/10 08:02:52;;;;;;;3.42;2.40;;;;;;;2.43;85.53;96488.69;10423191;27;96886;-69
2022/04/10 08:07:55;;;;;;;4.53;2.30;;;;;;;2.60;85.37;96475.63;10419793;27;96817;-69
2022/04/10 08:12:59;;;;;;;3.72;2.22;;;;;;;2.81;84.53;96478.63;10433222;27;96803;-69
2022/04/10 08:18:03;;;;;;;4.32;2.08;;;;;;;2.95;84.17;96484.72;10423042;27;96731;-68
2022/04/10 08:23:08;;;;;;;3.03;2.03;;;;;;;3.11;83.94;96487.16;10459316;27;96846;-69
2022/04/10 08:28:12;;;;;;;3.13;2.10;;;;;;;3.06;84.35;96493.41;10459924;27;96937;-69
2022/04/10 08:33:15;;;;;;;2.73;1.90;;;;;;;3.25;83.64;96497.44;10430787;27;98585;-69
2022/04/10 08:38:18;;;;;;;4.20;2.38;;;;;;;3.49;83.13;96494.25;10428935;27;96935;-69
2022/04/10 08:43:22;;;;;;;2.50;1.80;;;;;;;3.73;82.00;96497.00;10436737;27;96742;-69
2022/04/10 08:48:27;;;;;;;4.43;1.70;;;;;;;3.82;81.31;96499.81;10430638;27;96932;-69
2022/04/10 08:53:35;;;;;;;2.88;1.80;;;;;;;3.95;80.84;96491.25;10418399;27;102679;-69
2022/04/10 08:58:39;;;;;;;2.78;1.70;;;;;;;4.06;80.62;96493.16;10426128;27;96962;-69
2022/04/10 09:03:42;;;;;;;2.83;1.70;;;;;;;4.19;80.70;96505.16;10427183;27;96818;-68
2022/04/10 09:08:45;;;;;;;3.50;1.67;;;;;;;4.25;79.83;96497.94;10430847;27;100494;-69
2022/04/10 09:13:51;;;;;;;2.33;1.17;;;;;;;4.46;78.89;96501.66;10431224;27;97652;-69
2022/04/10 09:18:58;;;;;;;2.72;1.58;;;;;;;4.65;76.86;96500.41;10441698;27;96842;-69
2022/04/10 09:24:03;;;;;;;;;;;;;;;4.61;78.39;96501.53;10433084;27;98185;-69
2022/04/10 09:29:07;;;;;;;1.58;1.20;;;;;;;4.54;77.53;96498.53;10450267;27;97919;-69
2022/04/10 09:34:11;;;;;;;2.83;1.40;;;;;;;4.61;76.98;96493.78;10439298;27;97832;-69
2022/04/10 09:39:15;;;;;;;1.23;0.80;;;;;;;4.70;76.08;96498.34;10433404;27;97291;-69
2022/04/10 09:44:23;;;;;;;2.17;1.17;;;;;;;4.85;75.31;96481.72;10450084;27;98215;-69
2022/04/10 09:49:33;;;;;;;2.13;1.38;;;;;;;4.94;72.92;96470.75;10450641;27;96809;-69
2022/04/10 09:54:37;;;;;;;2.00;1.25;;;;;;;5.19;72.41;96474.19;10419051;27;99064;-69
2022/04/10 09:59:43;;;;;;;1.75;1.10;;;;;;;5.32;71.06;96468.97;10429906;27;97770;-68
2022/04/10 10:04:47;;;;;;;2.15;0.90;;;;;;;5.39;71.27;96459.00;10431596;27;97307;-69
2022/04/10 10:09:50;;;;;;;1.85;0.80;;;;;;;5.57;70.48;96468.03;10438623;27;97637;-69
2022/04/10 10:14:56;;;;;;;1.48;1.10;;;;;;;5.69;67.61;96461.97;10432642;27;97028;-69
2022/04/10 10:20:01;;;;;;;1.50;0.98;;;;;;;5.80;68.04;96460.34;10426549;27;96794;-69
2022/04/10 10:25:09;;;;;;;1.42;0.70;;;;;;;5.86;67.25;96460.75;10424477;27;97251;-69
2022/04/10 10:30:23;;;;;;;1.23;0.88;;;;;;;5.99;66.44;96447.69;10428497;27;96926;-69
2022/04/10 10:35:30;;;;;;;1.15;1.00;;;;;;;6.08;67.77;96441.78;10462298;27;96985;-69
2022/04/10 10:40:33;;;;;;;1.35;0.90;;;;;;;6.19;65.77;96440.16;10444873;27;97953;-69
2022/04/10 10:45:40;;;;;;;1.40;0.82;;;;;;;6.30;64.69;96435.00;10443372;27;97481;-69
2022/04/10 10:50:43;;;;;;;1.08;0.65;;;;;;;6.31;65.22;96428.84;10443866;27;96779;-69
2022/04/10 10:55:50;;;;;;;1.52;0.70;;;;;;;6.42;63.25;96418.50;10457742;27;100063;-69
2022/04/10 11:00:54;;;;;;;2.00;0.90;;;;;;;6.61;62.17;96411.91;10446123;27;97931;-69
2022/04/10 11:06:06;;;;;;;1.17;0.68;;;;;;;6.68;62.12;96402.69;10445037;27;98631;-69
2022/04/10 11:11:08;;;;;;;1.70;0.82;;;;;;;6.90;62.60;96393.19;10434028;27;96871;-69
2022/04/10 11:16:15;;;;;;;2.15;0.55;;;;;;;7.19;62.11;96391.72;10443629;27;97553;-69
2022/04/10 11:21:20;;;;;;;4.80;1.92;;;;;;;7.29;59.92;96385.81;10441025;27;100113;-69
2022/04/10 11:26:36;;;;;;;2.90;1.10;;;;;;;7.42;60.64;96381.25;10433887;27;97260;-69
2022/04/10 11:31:44;;;;;;;5.55;2.78;;;;;;;7.46;61.70;96382.69;10441564;27;100042;-69
2022/04/10 11:36:54;;;;;;;7.78;4.07;;;;;;;7.72;60.52;96375.34;10439343;27;100122;-69
2022/04/10 11:42:02;;;;;;;2.45;1.25;;;;;;;7.83;58.97;96374.44;10447334;27;100153;-68
2022/04/10 11:47:08;;;;;;;1.88;1.10;;;;;;;7.97;59.22;96358.50;10449165;27;96977;-69
2022/04/10 11:52:11;;;;;;;0.77;0.75;;;;;;;7.68;55.89;96358.31;10432259;27;96920;-69
2022/04/10 11:57:14;;;;;;;1.92;1.08;;;;;;;7.75;57.13;96356.88;10425505;27;98137;-69
2022/04/10 12:02:19;;;;;;;0.77;0.55;;;;;;;7.85;57.74;96356.94;10423394;27;96973;-69
2022/04/10 12:07:22;;;;;;;1.10;0.70;;;;;;;7.97;58.31;96348.09;10424079;27;97079;-69
2022/04/10 12:12:36;;;;;;;0.73;0.68;;;;;;;7.94;56.85;96345.78;10425092;27;100316;-69
2022/04/10 12:17:41;;;;;;;1.65;0.70;;;;;;;8.00;56.42;96334.03;10433999;27;97399;-69
2022/04/10 12:23:17;;;;;;;2.13;1.02;;;;;;;8.27;55.94;96341.25;10434973;27;97004;-68
2022/04/10 12:28:20;;;;;;;1.55;0.95;;;;;;;8.28;53.64;96335.09;10438898;27;96928;-69
2022/04/10 12:33:24;;;;;;;0.95;0.80;;;;;;;8.26;53.58;96339.63;10424115;27;96767;-69
2022/04/10 12:38:30;;;;;;;1.87;0.90;;;;;;;8.60;54.69;96336.69;10424817;27;96884;-69
2022/04/10 12:43:33;;;;;;;2.05;0.80;;;;;;;8.81;55.31;96327.97;10428657;27;96914;-68
2022/04/10 12:48:39;;;;;;;1.02;0.50;;;;;;;9.09;54.45;96322.00;10430596;27;96750;-69
2022/04/10 12:53:48;;;;;;;0.90;0.68;;;;;;;9.27;53.44;96324.72;10423148;27;96813;-69
2022/04/10 12:58:57;;;;;;;1.33;0.82;;;;;;;9.55;54.91;96321.44;10420920;27;96808;-69
2022/04/10 13:04:05;;;;;;;1.17;0.60;;;;;;;9.77;53.62;96321.13;10425413;27;96785;-69
2022/04/10 13:09:13;;;;;;;0.85;0.60;;;;;;;9.92;53.25;96320.69;10424070;27;96860;-67
2022/04/10 13:14:17;;;;;;;1.58;0.90;;;;;;;9.78;54.17;96312.34;10434385;27;96959;-67
2022/04/10 13:19:21;;;;;;;1.85;0.60;;;;;;;9.94;52.06;96310.91;10425026;27;96934;-67
2022/04/10 13:24:24;;;;;;;0.85;0.43;;;;;;;10.13;52.15;96310.03;10433485;27;96862;-67
2022/04/10 13:29:27;;;;;;;0.93;0.60;;;;;;;10.32;51.75;96301.31;10429536;27;96892;-67
2022/04/10 13:34:32;;;;;;;2.05;1.30;;;;;;;10.26;49.90;96294.88;10430329;27;96860;-67
2022/04/10 13:39:35;;;;;;;1.88;0.70;;;;;;;10.50;52.86;96291.75;10424628;27;96866;-67
2022/04/10 13:44:38;;;;;;;0.95;0.60;;;;;;;10.58;49.51;96293.59;10434557;27;96843;-67
2022/04/10 13:49:44;;;;;;;0.93;0.50;;;;;;;11.07;48.13;96290.66;10423581;27;96807;-67
2022/04/10 13:54:46;;;;;;;1.65;0.80;;;;;;;11.58;47.55;96286.56;10420489;27;96875;-67
2022/04/10 13:59:49;;;;;;;1.23;0.60;;;;;;;12.08;48.31;96283.25;10432995;27;101997;-67
2022/04/10 14:04:54;;;;;;;0.90;0.60;;;;;;;12.38;46.58;96283.72;10433278;27;100214;-67
2022/04/10 14:09:57;;;;;;;1.13;0.50;;;;;;;12.78;47.34;96278.75;10437839;27;97963;-67
2022/04/10 14:15:00;;;;;;;0.60;0.40;;;;;;;13.57;45.44;96271.31;10440870;27;97376;-68
2022/04/10 14:20:06;;;;;;;0.80;0.45;;;;;;;13.15;42.94;96267.88;10446685;27;97619;-67
2022/04/10 14:25:10;;;;;;;1.52;0.50;;;;;;;13.67;43.44;96258.00;10456397;27;98124;-67
2022/04/10 14:30:13;;;;;;;1.00;0.60;;;;;;;14.57;44.48;96247.22;10445089;27;96948;-66
2022/04/10 14:35:17;;;;;;;0.63;0.40;;;;;;;15.68;42.85;96245.94;10452136;27;96875;-66
2022/04/10 14:40:21;;;;;;;1.80;0.63;;;;;;;15.57;40.05;96235.00;10440629;27;96874;-67
2022/04/10 14:45:24;;;;;;;1.63;0.70;;;;;;;15.25;39.82;96226.38;10444020;27;96812;-67
2022/04/10 14:50:28;;;;;;;1.98;1.00;;;;;;;14.79;41.79;96224.59;10449169;27;96939;-67
2022/04/10 14:55:31;;;;;;;1.50;0.90;;;;;;;15.85;41.10;96217.63;10460936;27;97795;-67
2022/04/10 15:00:34;;;;;;;0.70;0.50;;;;;;;16.91;42.09;96216.47;10450416;27;96926;-67
2022/04/10 15:05:39;;;;;;;1.30;0.82;;;;;;;17.38;39.48;96215.88;10454046;27;96972;-68
2022/04/10 15:10:45;;;;;;;1.17;0.60;;;;;;;17.76;39.25;96220.03;10454484;27;98786;-67
2022/04/10 15:15:48;;;;;;;1.55;0.95;;;;;;;18.23;37.77;96220.31;10451093;27;97951;-67
2022/04/10 15:20:52;;;;;;;4.45;2.55;;;;;;;17.67;37.31;96206.16;10447056;27;96933;-67
2022/04/10 15:25:57;;;;;;;1.30;0.70;;;;;;;18.19;40.19;96195.28;10464321;27;96944;-67
2022/04/10 15:31:00;;;;;;;0.70;0.60;;;;;;;18.72;39.69;96192.81;10442415;27;96868;-67
2022/04/10 15:36:06;;;;;;;1.55;0.50;;;;;;;19.01;35.37;96190.88;10448422;27;98477;-67
2022/04/10 15:41:09;;;;;;;0.88;0.70;;;;;;;18.90;34.86;96187.00;10447863;27;98036;-68
2022/04/10 15:46:12;;;;;;;1.08;0.80;;;;;;;18.38;35.23;96186.63;10443268;27;97396;-67
2022/04/10 15:51:17;;;;;;;2.40;0.63;;;;;;;18.43;36.65;96184.19;10442510;27;96953;-67
2022/04/10 15:56:20;;;;;;;1.27;0.70;;;;;;;18.96;34.62;96177.44;10442809;27;98424;-68
2022/04/10 16:01:25;;;;;;;1.70;0.60;;;;;;;19.13;35.12;96168.06;10440807;27;97075;-69
2022/04/10 16:06:30;;;;;;;0.50;0.50;;;;;;;19.20;35.03;96174.19;10448117;27;96847;-69
2022/04/10 16:11:33;;;;;;;0.55;0.50;;;;;;;19.56;35.16;96156.25;10437755;27;97884;-69
2022/04/10 16:16:38;;;;;;;2.90;0.90;;;;;;;19.60;35.64;96154.78;10454621;27;96884;-69
2022/04/10 16:21:42;;;;;;;0.93;0.80;;;;;;;20.07;35.83;96152.06;10443985;27;96932;-68
2022/04/10 16:32:28;;;;;;;0.90;0.70;;;;;;;19.04;35.88;96153.41;10454810;27;96993;-68
2022/04/10 16:37:33;;;;;;;1.27;0.77;;;;;;;18.68;35.66;96149.25;10447876;27;97654;-68
2022/04/10 16:42:36;;;;;;;1.50;0.90;;;;;;;19.06;33.46;96138.94;10447498;27;97516;-68
2022/04/10 16:47:39;;;;;;;1.33;0.75;;;;;;;18.75;33.23;96139.50;10455230;27;96895;-68
2022/04/10 16:52:44;;;;;;;0.70;0.68;;;;;;;17.71;34.55;96132.59;10443945;27;96774;-68
2022/04/10 16:57:47;;;;;;;1.92;0.90;;;;;;;17.82;34.22;96123.31;10444656;27;97174;-69
2022/04/10 17:02:52;;;;;;;1.23;0.93;;;;;;;17.85;35.19;96125.59;10452925;27;103569;-68
2022/04/10 17:07:57;;;;;;;1.70;1.00;;;;;;;17.81;33.58;96130.41;10439272;27;97579;-69
2022/04/10 17:13:00;;;;;;;1.30;1.00;;;;;;;17.44;33.86;96131.63;10436660;27;97337;-68
2022/04/10 17:18:03;;;;;;;1.40;1.00;;;;;;;17.09;33.97;96119.22;10441012;27;98404;-69
2022/04/10 17:23:07;;;;;;;2.05;1.20;;;;;;;16.20;34.22;96112.44;10452419;27;97010;-69
2022/04/10 17:28:10;;;;;;;2.60;1.60;;;;;;;15.10;35.33;96116.66;10444153;27;97035;-69
2022/04/10 17:33:13;;;;;;;3.10;1.63;;;;;;;14.16;35.78;96123.91;10443568;27;100840;-68
2022/04/10 17:38:17;;;;;;;2.95;2.10;;;;;;;13.23;37.07;96120.97;10452890;27;97586;-69
2022/04/10 17:43:20;;;;;;;3.90;1.40;;;;;;;12.40;38.90;96135.03;10440630;27;100676;-68
2022/04/10 17:48:23;;;;;;;2.25;1.23;;;;;;;12.25;39.25;96137.50;10445790;27;96826;-68
2022/04/10 17:53:28;;;;;;;3.53;1.50;;;;;;;11.52;41.71;96136.25;10432305;27;97666;-68
2022/04/10 17:58:32;;;;;;;1.10;0.90;;;;;;;10.91;42.88;96137.97;10447304;27;96946;-69
2022/04/10 18:03:36;;;;;;;0.95;0.77;;;;;;;10.59;44.00;96134.13;10439405;27;98483;-68
2022/04/10 18:08:40;;;;;;;2.30;0.95;;;;;;;10.18;44.34;96146.81;10443398;27;96873;-68
2022/04/10 18:13:43;;;;;;;1.97;0.70;;;;;;;9.67;45.25;96149.00;10437905;27;96899;-68
2022/04/10 18:18:46;;;;;;;1.13;0.55;;;;;;;9.32;46.79;96146.22;10436616;27;97032;-70
2022/04/10 18:23:51;;;;;;;1.80;1.08;;;;;;;8.99;47.41;96143.97;10444961;27;98040;-70
2022/04/10 18:28:54;;;;;;;1.73;1.30;;;;;;;8.49;49.03;96141.56;10436006;27;97021;-70
2022/04/10 18:33:57;;;;;;;2.60;1.30;;;;;;;8.02;49.69;96141.38;10439135;27;96871;-70
2022/04/10 18:39:01;;;;;;;2.20;1.40;;;;;;;7.54;50.71;96142.88;10438809;27;98495;-70
2022/04/10 18:44:05;;;;;;;2.88;1.00;;;;;;;7.06;51.41;96146.91;10438704;27;96928;-69
2022/04/10 18:54:30;;;;;;;3.55;1.23;;;;;;;6.67;51.16;96146.63;10445803;27;100847;-70
2022/04/10 18:59:33;;;;;;;3.40;1.42;;;;;;;6.42;51.75;96153.81;10444936;27;98641;-70
2022/04/10 19:04:36;;;;;;;2.53;1.10;;;;;;;6.12;52.17;96154.50;10449115;27;97324;-70
2022/04/10 19:09:41;;;;;;;1.33;0.82;;;;;;;5.98;52.54;96155.63;10447605;27;97013;-70
2022/04/10 19:14:44;;;;;;;2.67;1.17;;;;;;;5.82;52.78;96161.16;10442883;27;97849;-73
2022/04/10 19:19:47;;;;;;;2.38;1.02;;;;;;;5.77;52.35;96157.28;10456558;27;97856;-68
2022/04/10 19:24:51;;;;;;;1.70;1.00;;;;;;;5.75;52.94;96167.78;10452504;27;97013;-69
2022/04/10 19:29:54;;;;;;;1.37;0.97;;;;;;;5.70;52.76;96175.06;10453019;27;97515;-70
2022/04/10 19:34:57;;;;;;;1.83;0.63;;;;;;;5.56;52.95;96173.56;10448531;27;97490;-68
2022/04/10 19:40:01;;;;;;;2.60;1.75;;;;;;;5.58;53.59;96174.25;10448767;27;96825;-68
2022/04/10 19:45:05;;;;;;;1.75;0.70;;;;;;;5.47;53.87;96171.69;10456996;27;96941;-72
2022/04/10 19:50:09;;;;;;;1.25;0.90;;;;;;;5.31;54.48;96175.44;10439353;27;96869;-68
2022/04/10 19:55:13;;;;;;;32.33;18.40;;;;;;;5.32;55.37;96174.50;10445036;27;98538;-67
2022/04/10 20:00:16;;;;;;;47.08;26.95;;;;;;;5.16;55.87;96176.59;10450051;27;97318;-67
2022/04/10 20:05:21;;;;;;;7.68;4.35;;;;;;;4.91;56.84;96175.84;10456759;27;97987;-69
2022/04/10 20:10:26;;;;;;;17.93;12.20;;;;;;;4.87;57.12;96184.78;10446212;27;97088;-67
2022/04/10 20:15:29;;;;;;;5.85;3.45;;;;;;;4.73;57.04;96182.38;10439665;27;97446;-69
2022/04/10 20:20:32;;;;;;;3.88;2.20;;;;;;;4.86;56.91;96182.31;10445778;27;97219;-69
2022/04/10 20:25:37;;;;;;;6.10;2.90;;;;;;;4.94;57.44;96173.03;10454405;27;98065;-69
2022/04/10 20:30:40;;;;;;;4.90;2.33;;;;;;;4.59;57.92;96178.22;10446297;27;96745;-69
2022/04/10 20:35:43;;;;;;;3.90;1.95;;;;;;;4.10;59.00;96177.41;10452229;27;97042;-69
2022/04/10 20:40:48;;;;;;;2.40;1.45;;;;;;;3.80;59.61;96183.81;10449056;27;97900;-69
2022/04/10 20:45:51;;;;;;;2.17;1.77;;;;;;;3.70;59.78;96187.97;10453676;27;97805;-69
2022/04/10 20:50:54;;;;;;;3.17;1.70;;;;;;;3.59;59.28;96191.31;10445609;27;96922;-69
2022/04/10 20:55:59;;;;;;;2.55;1.50;;;;;;;3.67;59.46;96193.34;10452071;27;97237;-69
2022/04/10 21:01:02;;;;;;;2.25;1.50;;;;;;;3.90;59.64;96198.69;10448336;27;98241;-69
2022/04/10 21:06:08;;;;;;;3.08;1.80;;;;;;;3.92;59.59;96191.66;10445562;27;96888;-69
2022/04/10 21:11:12;;;;;;;2.97;1.67;;;;;;;3.88;59.81;96197.97;10449840;27;97164;-69
2022/04/10 21:16:15;;;;;;;1.65;1.00;;;;;;;3.72;60.38;96190.47;10449636;27;98188;-69
2022/04/10 21:21:21;;;;;;;1.20;1.10;;;;;;;3.53;60.74;96191.72;10443455;27;96979;-69
2022/04/10 21:26:25;;;;;;;2.65;1.38;;;;;;;3.48;60.56;96187.81;10456200;27;97213;-69
2022/04/10 21:31:30;;;;;;;1.13;0.90;;;;;;;3.35;60.79;96193.81;10442747;27;97678;-69
2022/04/10 21:36:33;;;;;;;1.40;1.00;;;;;;;3.31;61.19;96194.97;10448302;27;97828;-69
2022/04/10 21:41:38;;;;;;;1.88;1.30;;;;;;;3.14;61.14;96190.13;10450562;27;97540;-69
2022/04/10 21:46:41;;;;;;;2.35;1.65;;;;;;;3.10;61.74;96186.06;10451970;27;97063;-69
2022/04/10 21:51:43;;;;;;;2.17;1.40;;;;;;;2.93;62.18;96198.38;10441650;27;97876;-69
2022/04/10 21:56:48;;;;;;;3.42;1.65;;;;;;;2.77;62.87;96197.69;10453450;27;97342;-69
2022/04/10 22:01:50;;;;;;;2.20;1.30;;;;;;;2.64;63.00;96203.66;10444722;27;96844;-69
2022/04/10 22:06:53;;;;;;;1.52;1.30;;;;;;;2.77;63.06;96195.13;10449794;27;97364;-69
2022/04/10 22:11:58;;;;;;;1.40;0.95;;;;;;;2.89;62.45;96194.31;10445016;27;96972;-69
2022/04/10 22:17:01;;;;;;;1.08;0.98;;;;;;;2.75;62.90;96196.97;10450741;27;97034;-69
2022/04/10 22:22:04;;;;;;;1.90;1.20;;;;;;;2.52;63.94;96209.63;10427506;27;97169;-69
2022/04/10 22:27:09;;;;;;;3.70;1.65;;;;;;;2.42;63.71;96209.38;10432495;27;97997;-69
2022/04/10 22:32:12;;;;;;;3.15;1.20;;;;;;;2.52;63.86;96204.47;10453590;27;96977;-69
2022/04/10 22:37:15;;;;;;;3.25;1.30;;;;;;;2.57;63.42;96212.72;10436300;27;97012;-69
2022/04/10 22:42:19;;;;;;;1.98;1.20;;;;;;;2.64;63.78;96203.66;10421977;27;97172;-69
2022/04/10 22:47:22;;;;;;;1.90;1.00;;;;;;;2.63;64.17;96196.88;10441659;27;96730;-69
2022/04/10 22:52:25;;;;;;;1.63;1.25;;;;;;;2.41;64.82;96204.34;10418221;27;96983;-69
2022/04/10 22:57:30;;;;;;;1.38;1.20;;;;;;;2.37;64.97;96205.44;10440851;27;98025;-69
2022/04/10 23:02:34;;;;;;;1.70;1.30;;;;;;;2.44;64.57;96198.97;10445188;27;97152;-69
2022/04/10 23:07:36;;;;;;;1.65;1.35;;;;;;;2.23;64.87;96190.88;10418784;28;96740;-69
2022/04/10 23:12:43;;;;;;;3.03;1.38;;;;;;;2.06;65.86;96182.47;10425633;27;97192;-69
2022/04/10 23:17:46;;;;;;;3.20;1.50;;;;;;;2.25;64.94;96187.28;10427653;27;97134;-69
2022/04/10 23:22:51;;;;;;;4.18;1.98;;;;;;;2.13;66.06;96190.63;10461334;27;96921;-69
2022/04/10 23:27:55;;;;;;;;;;;;;;;1.97;65.94;96189.94;10436371;27;96867;-69
2022/04/10 23:32:58;;;;;;;3.10;1.95;;;;;;;2.00;66.35;96189.75;10447426;27;96901;-69
2022/04/10 23:38:01;;;;;;;4.68;1.65;;;;;;;2.09;66.19;96191.75;10422728;27;96824;-69
2022/04/10 23:43:05;;;;;;;1.90;1.30;;;;;;;2.04;65.91;96183.47;10436367;27;96961;-69
2022/04/10 23:48:09;;;;;;;1.85;1.30;;;;;;;1.94;66.67;96181.47;10424976;27;98399;-69
2022/04/10 23:53:11;;;;;;;2.08;0.90;;;;;;;2.04;66.50;96179.16;10435401;27;97232;-69
2022/04/10 23:58:16;;;;;;;3.03;1.10;;;;;;;1.99;66.04;96170.03;10425478;27;100227;-69
